Time;durP1;ratioP1;P1;durP2;ratioP2;P2;SDS_P1;SDS_P2;PMS_P1;PMS_P2;Temp;Humidity;BMP_temperature;BMP_pressure;BME280_temperature;BME280_humidity;BME280_pressure;Samples;Min_cycle;Max_cycle;Signal;HPM_P1;HPM_P2
2021/03/04 00:00:07;;;;;;;;;;;;;;;;;;5067684;28;20706;-69
2021/03/04 00:02:33;;;;;;;;;;;;;;;;;;5062790;28;19923;-70
2021/03/04 00:04:59;;;;;;;;;;;;;;;;;;5065635;28;19934;-71
2021/03/04 00:07:25;;;;;;;;;;;;;;;;;;5069974;28;20027;-70
2021/03/04 00:09:51;;;;;;;;;;;;;;;;;;5069042;28;19977;-70
2021/03/04 00:12:17;;;;;;;;;;;;;;;;;;5061669;28;19926;-71
2021/03/04 00:14:42;;;;;;;;;;;;;;;;;;5068346;28;19950;-71
2021/03/04 00:17:08;;;;;;;;;;;;;;;;;;5064481;28;19929;-69
2021/03/04 00:19:34;;;;;;;;;;;;;;;;;;5055206;28;20019;-71
2021/03/04 00:22:00;;;;;;;;;;;;;;;;;;5048767;28;19950;-71
2021/03/04 00:24:26;;;;;;;;;;;;;;;;;;5063325;28;20402;-68
2021/03/04 00:26:52;;;;;;;;;;;;;;;;;;5067471;28;20417;-70
2021/03/04 00:29:18;;;;;;;;;;;;;;;;;;5069804;28;20030;-69
2021/03/04 00:31:43;;;;;;;;;;;;;;;;;;5066347;28;19929;-73
2021/03/04 00:34:09;;;;;;;;;;;;;;;;;;5070197;28;19927;-70
2021/03/04 00:36:35;;;;;;;;;;;;;;;;;;5071336;28;19923;-70
2021/03/04 00:39:01;;;;;;;;;;;;;;;;;;5064027;28;19972;-71
2021/03/04 00:41:27;;;;;;;;;;;;;;;;;;5044563;28;19944;-71
2021/03/04 00:43:53;;;;;;;;;;;;;;;;;;5058608;28;19931;-69
2021/03/04 00:46:18;;;;;;;;;;;;;;;;;;5063990;28;20448;-70
2021/03/04 00:48:44;;;;;;;;;;;;;;;;;;5062380;28;19927;-70
2021/03/04 00:51:10;;;;;;;;;;;;;;;;;;5068592;28;20407;-71
2021/03/04 00:53:36;;;;;;;;;;;;;;;;;;5059707;28;20302;-70
2021/03/04 00:56:02;;;;;;;;;;;;;;;;;;5071336;28;19940;-70
2021/03/04 00:58:28;;;;;;;;;;;;;;;;;;5066605;28;19930;-72
2021/03/04 01:00:53;;;;;;;;;;;;;;;;;;5066868;28;19985;-70
2021/03/04 01:03:19;;;;;;;;;;;;;;;;;;5057725;28;19927;-69
2021/03/04 01:05:45;;;;;;;;;;;;;;;;;;5071158;28;20257;-71
2021/03/04 01:08:11;;;;;;;;;;;;;;;;;;5067699;28;19976;-70
2021/03/04 01:10:37;;;;;;;;;;;;;;;;;;5068059;28;19925;-69
2021/03/04 01:13:03;;;;;;;;;;;;;;;;;;5058977;28;19928;-70
2021/03/04 01:15:29;;;;;;;;;;;;;;;;;;5062061;28;19952;-67
2021/03/04 01:17:54;;;;;;;;;;;;;;;;;;5070136;28;19956;-71
2021/03/04 01:20:20;;;;;;;;;;;;;;;;;;5056310;28;19943;-70
2021/03/04 01:22:46;;;;;;;;;;;;;;;;;;5067998;28;19928;-69
2021/03/04 01:25:12;;;;;;;;;;;;;;;;;;5067380;28;20436;-69
2021/03/04 01:27:38;;;;;;;;;;;;;;;;;;5063361;28;19935;-67
2021/03/04 01:30:04;;;;;;;;;;;;;;;;;;5063722;28;19934;-67
2021/03/04 01:32:29;;;;;;;;;;;;;;;;;;5066817;28;19925;-68
2021/03/04 01:34:55;;;;;;;;;;;;;;;;;;5067233;28;19982;-70
2021/03/04 01:37:21;;;;;;;;;;;;;;;;;;5068519;28;20324;-70
2021/03/04 01:39:47;;;;;;;578.67;407.07;;;;;;;;;;5048044;28;20505;-68
2021/03/04 01:42:13;;;;;;;494.58;140.10;;;;;;;;;;5063317;28;20207;-69
2021/03/04 01:44:39;;;;;;;498.73;182.03;;;;;;;;;;5055216;28;20270;-70
2021/03/04 01:47:06;;;;;;;551.73;246.87;;;;;;;;;;5032320;28;20476;-70
2021/03/04 01:49:32;;;;;;;306.00;156.90;;;;;;;;;;5041709;28;20408;-69
2021/03/04 01:51:58;;;;;;;1.10;0.60;;;;;;;;;;5050243;28;20539;-69
2021/03/04 01:54:24;;;;;;;4.93;0.90;;;;;;;;;;5037986;28;20444;-70
2021/03/04 01:56:50;;;;;;;0.80;0.60;;;;;;;;;;5012333;28;21059;-70
2021/03/04 01:59:16;;;;;;;2.30;2.13;;;;;;;;;;5037694;28;20421;-69
2021/03/04 02:01:42;;;;;;;;;;;;;;;;;;5049713;28;20874;-67
2021/03/04 02:04:08;;;;;;;3.27;1.83;;;;;;;;;;5048746;28;20378;-69
2021/03/04 02:06:43;;;;;;;0.80;0.80;;;;;;;;;;5049894;28;20433;-70
2021/03/04 02:09:11;;;;;;;1.00;1.00;;;;;;;;;;5056333;28;20742;-70
2021/03/04 02:11:56;;;;;;;1.10;1.00;;;;;;;;;;5050805;28;20421;-70
2021/03/04 02:14:26;;;;;;;1.43;1.20;;;;;;;;;;5032564;28;20423;-70
2021/03/04 02:16:55;;;;;;;67.10;53.20;;;;;;;;;;5030421;28;20956;-69
2021/03/04 02:19:39;;;;;;;152.87;58.40;;;;;;;;;;5029971;28;20817;-69
2021/03/04 02:22:14;;;;;;;1.10;1.00;;;;;;;;;;5029671;28;20471;-68
2021/03/04 02:24:47;;;;;;;124.30;37.90;;;;;;;;;;5029426;28;20428;-71
2021/03/04 02:27:14;;;;;;;172.73;70.33;;;;;;;;;;5032378;28;21119;-71
2021/03/04 02:29:49;;;;;;;404.63;117.28;;;;;;;;;;5043956;28;20417;-67
2021/03/04 02:32:16;;;;;;;457.88;169.23;;;;;;;;;;5070622;28;20241;-70
2021/03/04 02:34:42;;;;;;;;;;;;;;;;;;5068193;28;20045;-70
2021/03/04 02:37:08;;;;;;;;;;;;;;;;;;5053479;28;20372;-71
2021/03/04 02:39:33;;;;;;;;;;;;;;;;;;5049438;28;19908;-70
2021/03/04 02:41:59;;;;;;;;;;;;;;;;;;5046500;28;19940;-69
2021/03/04 02:44:25;;;;;;;;;;;;;;;;;;5030401;28;19924;-69
2021/03/04 02:46:51;;;;;;;;;;;;;;;;;;5030496;28;20291;-70
2021/03/04 02:49:17;;;;;;;;;;;;;;;;;;5045794;28;19916;-69
2021/03/04 02:51:43;;;;;;;;;;;;;;;;;;5053529;28;19904;-70
2021/03/04 02:54:09;;;;;;;;;;;;;;;;;;5035858;28;19991;-70
2021/03/04 02:56:34;;;;;;;;;;;;;;;;;;5050122;28;19913;-70
2021/03/04 02:59:01;;;;;;;;;;;;;;;;;;5033763;28;20325;-70
2021/03/04 03:01:27;;;;;;;;;;;;;;;;;;5034391;28;19912;-72
2021/03/04 03:03:53;;;;;;;;;;;;;;;;;;5033968;28;20281;-69
2021/03/04 03:06:19;;;;;;;;;;;;;;;;;;5034460;28;20430;-70
2021/03/04 03:08:44;;;;;;;;;;;;;;;;;;5039669;28;19924;-70
2021/03/04 03:11:10;;;;;;;;;;;;;;;;;;5021125;28;19948;-71
2021/03/04 03:13:36;;;;;;;;;;;;;;;;;;5055534;28;19909;-70
2021/03/04 03:16:02;;;;;;;;;;;;;;;;;;5036108;28;19913;-71
2021/03/04 03:18:28;;;;;;;;;;;;;;;;;;5035578;28;19912;-69
2021/03/04 03:20:54;;;;;;;;;;;;;;;;;;5035754;28;19920;-71
2021/03/04 03:23:19;;;;;;;;;;;;;;;;;;5033514;28;19905;-71
2021/03/04 03:25:45;;;;;;;;;;;;;;;;;;5037848;28;19988;-69
2021/03/04 03:28:11;;;;;;;;;;;;;;;;;;5053323;28;20450;-69
2021/03/04 03:30:38;;;;;;;;;;;;;;;;;;5060679;28;20310;-71
2021/03/04 03:33:04;;;;;;;;;;;;;;;;;;5072520;28;19904;-71
2021/03/04 03:35:30;;;;;;;;;;;;;;;;;;5073361;28;19905;-71
2021/03/04 03:37:56;;;;;;;;;;;;;;;;;;5066259;28;19909;-69
2021/03/04 03:40:22;;;;;;;;;;;;;;;;;;5052467;28;19912;-68
2021/03/04 03:42:48;;;;;;;;;;;;;;;;;;5053166;28;19909;-71
2021/03/04 03:45:13;;;;;;;;;;;;;;;;;;5053203;28;19912;-71
2021/03/04 03:47:39;;;;;;;;;;;;;;;;;;5044103;28;20324;-70
2021/03/04 03:50:05;;;;;;;;;;;;;;;;;;5042843;28;20273;-67
2021/03/04 03:52:31;;;;;;;;;;;;;;;;;;5052893;28;19909;-70
2021/03/04 03:54:57;;;;;;;;;;;;;;;;;;5039819;28;19909;-69
2021/03/04 03:57:23;;;;;;;;;;;;;;;;;;5033170;28;19905;-70
2021/03/04 03:59:48;;;;;;;;;;;;;;;;;;5032828;28;19909;-70
2021/03/04 04:02:14;;;;;;;;;;;;;;;;;;5031907;28;19909;-70
2021/03/04 04:04:40;;;;;;;;;;;;;;;;;;5032470;28;20292;-70
2021/03/04 04:07:06;;;;;;;;;;;;;;;;;;5032780;28;20000;-71
2021/03/04 04:09:32;;;;;;;;;;;;;;;;;;5046233;28;20511;-70
2021/03/04 04:11:58;;;;;;;;;;;;;;;;;;5032685;28;19904;-71
2021/03/04 04:17:05;;;;;;;;;;;;;;;;;;5040783;28;19925;-70
2021/03/04 04:19:31;;;;;;;;;;;;;;;;;;5050555;28;20050;-69
2021/03/04 04:21:56;;;;;;;;;;;;;;;;;;5045628;28;19923;-69
2021/03/04 04:24:22;;;;;;;;;;;;;;;;;;5042097;28;19915;-69
2021/03/04 04:26:48;;;;;;;;;;;;;;;;;;5041503;28;19916;-69
2021/03/04 04:29:14;;;;;;;;;;;;;;;;;;5039429;28;19911;-70
2021/03/04 04:31:40;;;;;;;;;;;;;;;;;;5049291;28;20034;-69
2021/03/04 04:34:06;;;;;;;;;;;;;;;;;;5035247;28;20275;-69
2021/03/04 04:36:32;;;;;;;;;;;;;;;;;;5036866;28;19909;-69
2021/03/04 04:38:57;;;;;;;;;;;;;;;;;;5036191;28;19905;-69
2021/03/04 04:41:23;;;;;;;;;;;;;;;;;;5037985;28;19986;-70
2021/03/04 04:43:49;;;;;;;;;;;;;;;;;;5041387;28;19909;-70
2021/03/04 04:46:15;;;;;;;;;;;;;;;;;;5039663;28;19917;-70
2021/03/04 04:48:43;;;;;;;;;;;;;;;;;;5041873;28;19905;-70
2021/03/04 04:51:09;;;;;;;;;;;;;;;;;;5043680;28;20518;-70
2021/03/04 04:53:35;;;;;;;;;;;;;;;;;;5031943;28;19912;-70
2021/03/04 04:56:01;;;;;;;;;;;;;;;;;;5036868;28;19935;-70
2021/03/04 04:58:27;;;;;;;;;;;;;;;;;;5041401;28;20031;-70
2021/03/04 05:00:52;;;;;;;;;;;;;;;;;;5038875;28;19927;-70
2021/03/04 05:03:18;;;;;;;;;;;;;;;;;;5039075;28;20042;-71
2021/03/04 05:05:44;;;;;;;;;;;;;;;;;;5037767;28;20272;-70
2021/03/04 05:08:10;;;;;;;;;;;;;;;;;;5042093;28;19905;-70
2021/03/04 05:10:36;;;;;;;;;;;;;;;;;;5038899;28;19908;-70
2021/03/04 05:13:02;;;;;;;;;;;;;;;;;;5039973;28;20344;-70
2021/03/04 05:15:28;;;;;;;;;;;;;;;;;;5039092;28;19951;-71
2021/03/04 05:17:54;;;;;;;;;;;;;;;;;;5041112;28;19954;-70
2021/03/04 05:20:20;;;;;;;;;;;;;;;;;;5034094;28;19928;-69
2021/03/04 05:22:45;;;;;;;;;;;;;;;;;;5040355;28;19970;-69
2021/03/04 05:25:11;;;;;;;;;;;;;;;;;;5032319;28;20276;-69
2021/03/04 05:27:37;;;;;;;;;;;;;;;;;;5041182;28;19999;-69
2021/03/04 05:30:03;;;;;;;;;;;;;;;;;;5038885;28;19916;-69
2021/03/04 05:32:29;;;;;;;;;;;;;;;;;;5037942;28;20189;-69
2021/03/04 05:34:55;;;;;;;;;;;;;;;;;;5035093;28;19909;-69
2021/03/04 05:37:20;;;;;;;;;;;;;;;;;;5029096;28;20323;-69
2021/03/04 05:39:46;;;;;;;;;;;;;;;;;;5035243;28;19908;-70
2021/03/04 05:42:12;;;;;;;;;;;;;;;;;;5033121;28;19996;-70
2021/03/04 05:44:38;;;;;;;;;;;;;;;;;;5040285;28;19915;-69
2021/03/04 05:47:04;;;;;;;;;;;;;;;;;;5029741;28;20054;-70
2021/03/04 05:49:30;;;;;;;;;;;;;;;;;;5029115;28;19917;-70
2021/03/04 05:51:56;;;;;;;;;;;;;;;;;;5031123;28;19916;-69
2021/03/04 05:54:21;;;;;;;;;;;;;;;;;;5031595;28;20003;-68
2021/03/04 05:56:47;;;;;;;;;;;;;;;;;;5031375;28;19996;-69
2021/03/04 05:59:13;;;;;;;;;;;;;;;;;;5030955;28;19909;-69
2021/03/04 06:01:39;;;;;;;;;;;;;;;;;;5031448;28;19912;-68
2021/03/04 06:04:05;;;;;;;;;;;;;;;;;;5031198;28;19913;-69
2021/03/04 06:06:31;;;;;;;;;;;;;;;;;;5031019;28;20336;-69
2021/03/04 06:08:57;;;;;;;;;;;;;;;;;;5029497;28;19999;-69
2021/03/04 06:11:23;;;;;;;;;;;;;;;;;;5025344;28;20378;-66
2021/03/04 06:13:49;;;;;;;;;;;;;;;;;;5029361;28;20011;-69
2021/03/04 06:16:14;;;;;;;;;;;;;;;;;;5031081;28;19917;-68
2021/03/04 06:18:40;;;;;;;;;;;;;;;;;;5033744;28;19909;-69
2021/03/04 06:21:06;;;;;;;;;;;;;;;;;;5034235;28;19963;-69
2021/03/04 06:23:32;;;;;;;;;;;;;;;;;;5036791;28;19913;-69
2021/03/04 06:25:58;;;;;;;;;;;;;;;;;;5032367;28;19928;-69
2021/03/04 06:28:24;;;;;;;;;;;;;;;;;;5039057;28;19951;-70
2021/03/04 06:30:49;;;;;;;;;;;;;;;;;;5035104;28;19913;-69
2021/03/04 06:33:15;;;;;;;;;;;;;;;;;;5028055;28;19910;-69
2021/03/04 06:35:41;;;;;;;;;;;;;;;;;;5043188;28;19909;-68
2021/03/04 06:38:07;;;;;;;;;;;;;;;;;;5041057;28;20376;-69
2021/03/04 06:40:33;;;;;;;;;;;;;;;;;;5040464;28;19917;-68
2021/03/04 06:42:59;;;;;;;;;;;;;;;;;;5038125;28;19917;-68
2021/03/04 06:45:25;;;;;;;;;;;;;;;;;;5035824;28;19913;-69
2021/03/04 06:47:51;;;;;;;;;;;;;;;;;;5040084;28;19912;-69
2021/03/04 06:50:16;;;;;;;;;;;;;;;;;;5034480;28;20371;-70
2021/03/04 06:52:42;;;;;;;;;;;;;;;;;;5027297;28;19944;-69
2021/03/04 06:55:08;;;;;;;;;;;;;;;;;;5028712;28;19915;-70
2021/03/04 06:57:34;;;;;;;;;;;;;;;;;;5032419;28;20399;-69
2021/03/04 07:00:00;;;;;;;;;;;;;;;;;;5042054;28;20295;-69
2021/03/04 07:02:26;;;;;;;;;;;;;;;;;;5033643;28;19932;-70
2021/03/04 07:04:52;;;;;;;;;;;;;;;;;;5031916;28;19912;-69
2021/03/04 07:07:18;;;;;;;;;;;;;;;;;;5045137;28;19916;-69
2021/03/04 07:09:43;;;;;;;;;;;;;;;;;;5031782;28;20381;-70
2021/03/04 07:12:09;;;;;;;;;;;;;;;;;;5033490;28;20008;-67
2021/03/04 07:14:35;;;;;;;;;;;;;;;;;;5032113;28;20364;-68
2021/03/04 07:17:01;;;;;;;;;;;;;;;;;;5037448;28;20443;-69
2021/03/04 07:19:27;;;;;;;;;;;;;;;;;;5035915;28;19916;-71
2021/03/04 07:21:53;;;;;;;;;;;;;;;;;;5034792;28;20555;-69
2021/03/04 07:24:19;;;;;;;;;;;;;;;;;;5037732;28;19962;-71
2021/03/04 07:26:46;;;;;;;;;;;;;;;;;;5037948;28;19912;-70
2021/03/04 07:29:12;;;;;;;;;;;;;;;;;;5033099;28;19995;-68
2021/03/04 07:31:38;;;;;;;;;;;;;;;;;;5037796;28;20483;-67
2021/03/04 07:34:04;;;;;;;;;;;;;;;;;;5033258;28;19905;-69
2021/03/04 07:36:30;;;;;;;;;;;;;;;;;;5030839;28;19916;-67
2021/03/04 07:38:56;;;;;;;;;;;;;;;;;;5047480;28;19999;-70
2021/03/04 07:41:22;;;;;;;;;;;;;;;;;;5039925;28;19959;-70
2021/03/04 07:43:48;;;;;;;;;;;;;;;;;;5032457;28;19912;-70
2021/03/04 07:46:13;;;;;;;;;;;;;;;;;;5039679;28;19944;-71
2021/03/04 07:48:39;;;;;;;;;;;;;;;;;;5037954;28;19919;-70
2021/03/04 07:51:05;;;;;;;;;;;;;;;;;;5040103;28;19918;-69
2021/03/04 07:53:31;;;;;;;;;;;;;;;;;;5037397;28;20607;-70
2021/03/04 07:55:57;;;;;;;;;;;;;;;;;;5040453;28;20265;-70
2021/03/04 07:58:23;;;;;;;;;;;;;;;;;;5035931;28;19905;-69
2021/03/04 08:00:49;;;;;;;;;;;;;;;;;;5038952;28;19909;-68
2021/03/04 08:03:14;;;;;;;;;;;;;;;;;;5038487;28;19912;-69
2021/03/04 08:05:44;;;;;;;;;;;;;;;;;;5037873;28;19905;-68
2021/03/04 08:08:09;;;;;;;;;;;;;;;;;;5041390;28;19912;-69
2021/03/04 08:10:35;;;;;;;;;;;;;;;;;;5041615;28;19905;-70
2021/03/04 08:13:01;;;;;;;;;;;;;;;;;;5035765;28;19909;-70
2021/03/04 08:15:27;;;;;;;;;;;;;;;;;;5039428;28;20471;-67
2021/03/04 08:17:53;;;;;;;;;;;;;;;;;;5038394;28;20371;-68
2021/03/04 08:20:19;;;;;;;;;;;;;;;;;;5037136;28;19913;-67
2021/03/04 08:22:45;;;;;;;;;;;;;;;;;;5031620;28;19912;-71
2021/03/04 08:25:11;;;;;;;;;;;;;;;;;;5034412;28;19908;-69
2021/03/04 08:27:37;;;;;;;;;;;;;;;;;;5036377;28;19906;-69
2021/03/04 08:30:02;;;;;;;;;;;;;;;;;;5040279;28;20406;-68
2021/03/04 08:32:28;;;;;;;;;;;;;;;;;;5036814;28;19905;-68
2021/03/04 08:34:54;;;;;;;;;;;;;;;;;;5040896;28;19905;-68
2021/03/04 08:37:23;;;;;;;;;;;;;;;;;;5039265;28;19904;-69
2021/03/04 08:39:49;;;;;;;;;;;;;;;;;;5037811;28;20300;-70
2021/03/04 08:42:15;;;;;;;;;;;;;;;;;;5038470;28;19908;-69
2021/03/04 08:44:41;;;;;;;;;;;;;;;;;;5036857;28;19912;-71
2021/03/04 08:47:07;;;;;;;;;;;;;;;;;;5037797;28;19951;-70
2021/03/04 08:49:32;;;;;;;;;;;;;;;;;;5030887;28;19920;-69
2021/03/04 08:51:58;;;;;;;;;;;;;;;;;;5050987;28;19909;-69
2021/03/04 08:54:24;;;;;;;;;;;;;;;;;;5049830;28;19904;-69
2021/03/04 08:56:50;;;;;;;;;;;;;;;;;;5051372;28;19908;-70
2021/03/04 08:59:16;;;;;;;;;;;;;;;;;;5051259;28;19920;-69
2021/03/04 09:01:42;;;;;;;;;;;;;;;;;;5040039;28;19915;-68
2021/03/04 09:04:08;;;;;;;;;;;;;;;;;;5043841;28;19962;-69
2021/03/04 09:06:34;;;;;;;;;;;;;;;;;;5039312;28;19911;-69
2021/03/04 09:09:01;;;;;;;;;;;;;;;;;;5038182;28;19905;-69
2021/03/04 09:11:27;;;;;;;;;;;;;;;;;;5036925;28;19917;-71
2021/03/04 09:13:53;;;;;;;;;;;;;;;;;;5037088;28;19911;-71
2021/03/04 09:16:19;;;;;;;;;;;;;;;;;;5037231;28;19917;-70
2021/03/04 09:18:45;;;;;;;;;;;;;;;;;;5036973;28;20332;-70
2021/03/04 09:21:10;;;;;;;;;;;;;;;;;;5036129;28;19943;-68
2021/03/04 09:23:36;;;;;;;;;;;;;;;;;;5034065;28;19966;-69
2021/03/04 09:26:02;;;;;;;;;;;;;;;;;;5038191;28;19912;-69
2021/03/04 09:28:28;;;;;;;;;;;;;;;;;;5036121;28;19992;-69
2021/03/04 09:30:54;;;;;;;;;;;;;;;;;;5037986;28;20308;-70
2021/03/04 09:33:20;;;;;;;;;;;;;;;;;;5036936;28;19905;-70
2021/03/04 09:35:46;;;;;;;;;;;;;;;;;;5036043;28;19912;-70
2021/03/04 09:38:12;;;;;;;;;;;;;;;;;;5033315;28;19904;-69
2021/03/04 09:40:37;;;;;;;;;;;;;;;;;;5032560;28;19959;-70
2021/03/04 09:43:03;;;;;;;;;;;;;;;;;;5037987;28;19915;-70
2021/03/04 09:45:29;;;;;;;;;;;;;;;;;;5032419;28;19967;-69
2021/03/04 09:47:55;;;;;;;;;;;;;;;;;;5036747;28;20284;-69
2021/03/04 09:50:21;;;;;;;;;;;;;;;;;;5038577;28;19909;-69
2021/03/04 09:52:47;;;;;;;;;;;;;;;;;;5045780;28;19916;-69
2021/03/04 09:55:14;;;;;;;;;;;;;;;;;;5043143;28;20285;-68
2021/03/04 09:57:41;;;;;;;;;;;;;;;;;;5042914;28;19909;-70
2021/03/04 10:00:07;;;;;;;;;;;;;;;;;;5041480;28;20431;-70
2021/03/04 10:02:33;;;;;;;;;;;;;;;;;;5043766;28;20004;-70
2021/03/04 10:05:03;;;;;;;;;;;;;;;;;;5044014;28;19916;-70
2021/03/04 10:07:29;;;;;;;;;;;;;;;;;;5034979;28;19912;-70
2021/03/04 10:09:55;;;;;;;;;;;;;;;;;;5040747;28;20296;-69
2021/03/04 10:12:21;;;;;;;;;;;;;;;;;;5034336;28;19956;-69
2021/03/04 10:14:46;;;;;;;;;;;;;;;;;;5033149;28;19905;-69
2021/03/04 10:17:12;;;;;;;;;;;;;;;;;;5049279;22;19921;-68
2021/03/04 10:19:38;;;;;;;;;;;;;;;;;;5040903;28;19908;-72
2021/03/04 10:22:04;;;;;;;;;;;;;;;;;;5025388;28;20409;-69
2021/03/04 10:24:30;;;;;;;;;;;;;;;;;;5040752;28;19912;-70
2021/03/04 10:26:58;;;;;;;;;;;;;;;;;;5026824;28;19921;-70
2021/03/04 10:29:24;;;;;;;;;;;;;;;;;;5028872;28;20296;-69
2021/03/04 10:31:50;;;;;;;;;;;;;;;;;;5029936;28;19909;-70
2021/03/04 10:34:16;;;;;;;;;;;;;;;;;;5020763;28;19909;-70
2021/03/04 10:36:42;;;;;;;;;;;;;;;;;;5025610;28;19919;-70
2021/03/04 10:39:07;;;;;;;;;;;;;;;;;;5012023;28;19962;-69
2021/03/04 10:41:33;;;;;;;;;;;;;;;;;;5027168;28;19956;-71
2021/03/04 10:43:59;;;;;;;;;;;;;;;;;;5026689;28;19917;-70
2021/03/04 10:46:25;;;;;;;;;;;;;;;;;;5031694;28;20003;-71
2021/03/04 10:48:51;;;;;;;;;;;;;;;;;;5025839;28;19932;-72
2021/03/04 10:51:17;;;;;;;;;;;;;;;;;;5025078;28;19906;-70
2021/03/04 10:53:43;;;;;;;;;;;;;;;;;;5031006;28;20427;-70
2021/03/04 10:56:08;;;;;;;;;;;;;;;;;;5029245;28;19952;-70
2021/03/04 10:58:34;;;;;;;;;;;;;;;;;;5031736;28;19913;-69
2021/03/04 11:01:00;;;;;;;;;;;;;;;;;;5029374;28;19990;-71
2021/03/04 11:03:26;;;;;;;;;;;;;;;;;;5026077;28;20323;-70
2021/03/04 11:05:52;;;;;;;;;;;;;;;;;;5029680;28;19927;-69
2021/03/04 11:08:18;;;;;;;;;;;;;;;;;;5029567;28;19912;-70
2021/03/04 11:10:46;;;;;;;;;;;;;;;;;;5029845;28;19905;-70
2021/03/04 11:13:15;;;;;;;;;;;;;;;;;;5032858;28;20387;-70
2021/03/04 11:15:41;;;;;;;;;;;;;;;;;;5031026;28;19905;-70
2021/03/04 11:18:07;;;;;;;;;;;;;;;;;;5031300;28;19916;-69
2021/03/04 11:20:32;;;;;;;;;;;;;;;;;;5034062;28;20023;-69
2021/03/04 11:22:59;;;;;;;;;;;;;;;;;;5013084;28;19913;-70
2021/03/04 11:25:24;;;;;;;;;;;;;;;;;;5031790;28;19980;-69
2021/03/04 11:27:50;;;;;;;;;;;;;;;;;;5032037;28;20472;-70
2021/03/04 11:30:18;;;;;;;;;;;;;;;;;;5032319;28;20260;-70
2021/03/04 11:32:44;;;;;;;;;;;;;;;;;;5032738;28;19920;-71
2021/03/04 11:35:10;;;;;;;;;;;;;;;;;;5028310;28;19913;-71
2021/03/04 11:37:36;;;;;;;;;;;;;;;;;;5027927;28;20403;-71
2021/03/04 11:40:02;;;;;;;;;;;;;;;;;;5031814;28;19911;-72
2021/03/04 11:42:32;;;;;;;;;;;;;;;;;;5031014;28;19913;-72
2021/03/04 11:44:58;;;;;;;;;;;;;;;;;;5033562;28;19966;-70
2021/03/04 11:47:23;;;;;;;;;;;;;;;;;;5030435;28;19912;-71
2021/03/04 11:49:49;;;;;;;;;;;;;;;;;;5031268;28;19980;-71
2021/03/04 11:52:15;;;;;;;;;;;;;;;;;;5026985;28;19963;-69
2021/03/04 11:54:41;;;;;;;;;;;;;;;;;;5039242;28;19966;-71
2021/03/04 11:57:07;;;;;;;;;;;;;;;;;;5034119;28;20009;-69
2021/03/04 11:59:33;;;;;;;;;;;;;;;;;;5039856;28;19908;-69
2021/03/04 12:01:59;;;;;;;;;;;;;;;;;;5041429;28;20281;-70
2021/03/04 12:04:26;;;;;;;;;;;;;;;;;;5036470;28;19908;-70
2021/03/04 12:06:52;;;;;;;;;;;;;;;;;;5032040;28;19909;-67
2021/03/04 12:09:18;;;;;;;;;;;;;;;;;;5028254;28;20698;-70
2021/03/04 12:11:44;;;;;;;;;;;;;;;;;;5034291;28;20487;-71
2021/03/04 12:14:10;;;;;;;;;;;;;;;;;;5035485;28;20438;-69
2021/03/04 12:16:35;;;;;;;;;;;;;;;;;;5037551;28;20395;-70
2021/03/04 12:19:01;;;;;;;;;;;;;;;;;;5041302;28;20391;-70
2021/03/04 12:21:27;;;;;;;;;;;;;;;;;;5050164;28;20344;-70
2021/03/04 12:23:53;;;;;;;;;;;;;;;;;;5031813;28;20372;-70
2021/03/04 12:26:19;;;;;;;;;;;;;;;;;;5032658;28;20069;-71
2021/03/04 12:28:45;;;;;;;;;;;;;;;;;;5032852;28;19916;-69
2021/03/04 12:31:11;;;;;;;;;;;;;;;;;;5028417;28;20434;-68
2021/03/04 12:33:37;;;;;;;;;;;;;;;;;;5025931;28;20063;-70
2021/03/04 12:36:02;;;;;;;;;;;;;;;;;;5024989;28;19955;-71
2021/03/04 12:38:28;;;;;;;;;;;;;;;;;;5023386;28;20006;-68
2021/03/04 12:40:54;;;;;;;;;;;;;;;;;;5026114;28;19909;-70
2021/03/04 12:43:20;;;;;;;;;;;;;;;;;;5009799;28;20376;-69
2021/03/04 12:45:47;;;;;;;;;;;;;;;;;;5018867;28;19920;-68
2021/03/04 12:48:13;;;;;;;;;;;;;;;;;;5028535;28;19906;-70
2021/03/04 12:50:39;;;;;;;;;;;;;;;;;;5027341;28;19913;-69
2021/03/04 12:53:05;;;;;;;;;;;;;;;;;;5031458;28;19947;-70
2021/03/04 12:55:31;;;;;;;;;;;;;;;;;;5031012;28;19909;-68
2021/03/04 12:57:57;;;;;;;;;;;;;;;;;;5021012;28;20423;-71
2021/03/04 13:00:23;;;;;;;;;;;;;;;;;;5025445;28;20295;-70
2021/03/04 13:02:49;;;;;;;;;;;;;;;;;;5030109;28;19986;-71
2021/03/04 13:05:15;;;;;;;;;;;;;;;;;;5025650;28;19917;-70
2021/03/04 13:07:41;;;;;;;;;;;;;;;;;;5023633;28;19917;-71
2021/03/04 13:10:06;;;;;;;;;;;;;;;;;;5025195;28;19913;-71
2021/03/04 13:12:32;;;;;;;;;;;;;;;;;;5027474;28;20377;-70
2021/03/04 13:15:01;;;;;;;;;;;;;;;;;;5029473;28;19908;-69
2021/03/04 13:17:26;;;;;;;;;;;;;;;;;;5043615;28;19920;-70
2021/03/04 13:19:52;;;;;;;;;;;;;;;;;;5034427;28;20353;-71
2021/03/04 13:22:18;;;;;;;;;;;;;;;;;;5046610;28;19954;-70
2021/03/04 13:24:44;;;;;;;;;;;;;;;;;;5045682;28;20273;-71
2021/03/04 13:27:10;;;;;;;;;;;;;;;;;;5038343;28;19996;-70
2021/03/04 13:29:36;;;;;;;;;;;;;;;;;;5027825;28;19912;-70
2021/03/04 13:32:02;;;;;;;;;;;;;;;;;;5030138;28;19916;-70
2021/03/04 13:34:27;;;;;;;;;;;;;;;;;;5030734;28;20004;-69
2021/03/04 13:36:53;;;;;;;;;;;;;;;;;;5027706;28;19916;-67
2021/03/04 13:39:19;;;;;;;;;;;;;;;;;;5026416;28;20492;-69
2021/03/04 13:41:45;;;;;;;;;;;;;;;;;;5027571;28;20047;-71
2021/03/04 13:44:11;;;;;;;;;;;;;;;;;;5030713;28;20347;-68
2021/03/04 13:46:37;;;;;;;;;;;;;;;;;;5031943;28;19931;-68
2021/03/04 13:49:04;;;;;;;;;;;;;;;;;;5031554;28;19913;-69
2021/03/04 13:51:30;;;;;;;;;;;;;;;;;;5024232;28;19916;-71
2021/03/04 13:53:56;;;;;;;;;;;;;;;;;;5022494;28;19909;-69
2021/03/04 13:56:22;;;;;;;;;;;;;;;;;;5042423;28;19917;-70
2021/03/04 13:58:48;;;;;;;;;;;;;;;;;;5032083;28;20366;-71
2021/03/04 14:01:15;;;;;;;;;;;;;;;;;;5033544;28;19913;-71
2021/03/04 14:03:40;;;;;;;;;;;;;;;;;;5045039;28;19917;-71
2021/03/04 14:06:06;;;;;;;;;;;;;;;;;;5043474;28;19916;-70
2021/03/04 14:08:33;;;;;;;;;;;;;;;;;;5044178;28;19913;-71
2021/03/04 14:10:59;;;;;;;;;;;;;;;;;;5043431;28;19909;-71
2021/03/04 14:13:25;;;;;;;;;;;;;;;;;;5035899;28;19916;-72
2021/03/04 14:15:50;;;;;;;;;;;;;;;;;;5034124;28;19920;-67
2021/03/04 14:18:16;;;;;;;;;;;;;;;;;;5039191;28;19908;-68
2021/03/04 14:20:42;;;;;;;;;;;;;;;;;;5038311;28;19919;-70
2021/03/04 14:23:09;;;;;;;;;;;;;;;;;;5029646;28;20000;-68
2021/03/04 14:25:36;;;;;;;;;;;;;;;;;;5038564;28;19912;-70
2021/03/04 14:28:01;;;;;;;;;;;;;;;;;;5017784;28;19921;-69
2021/03/04 14:30:27;;;;;;;;;;;;;;;;;;5043797;28;19916;-71
2021/03/04 14:32:53;;;;;;;;;;;;;;;;;;5049375;28;19908;-70
2021/03/04 14:35:21;;;;;;;;;;;;;;;;;;5039057;28;19980;-69
2021/03/04 14:37:47;;;;;;;;;;;;;;;;;;5038507;28;19908;-72
2021/03/04 14:40:18;;;;;;;;;;;;;;;;;;5044537;28;20367;-69
2021/03/04 14:42:44;;;;;;;;;;;;;;;;;;5041635;28;19909;-70
2021/03/04 14:45:09;;;;;;;;;;;;;;;;;;5052497;28;19959;-71
2021/03/04 14:47:35;;;;;;;;;;;;;;;;;;5042731;28;19963;-70
2021/03/04 14:50:01;;;;;;;;;;;;;;;;;;5040546;28;19909;-70
2021/03/04 14:52:27;;;;;;;;;;;;;;;;;;5042696;28;19966;-71
2021/03/04 14:54:53;;;;;;;;;;;;;;;;;;5047631;28;19958;-70
2021/03/04 14:57:19;;;;;;;;;;;;;;;;;;5059954;28;19904;-70
2021/03/04 14:59:45;;;;;;;;;;;;;;;;;;5047581;28;19913;-71
2021/03/04 15:02:11;;;;;;;;;;;;;;;;;;5042691;28;19968;-71
2021/03/04 15:04:37;;;;;;;;;;;;;;;;;;5015705;28;20360;-70
2021/03/04 15:07:03;;;;;;;;;;;;;;;;;;5035536;28;19925;-70
2021/03/04 15:09:29;;;;;;;;;;;;;;;;;;5033070;28;20261;-71
2021/03/04 15:11:55;;;;;;;;;;;;;;;;;;5030378;28;19908;-69
2021/03/04 15:14:20;;;;;;;;;;;;;;;;;;5029016;28;20273;-69
2021/03/04 15:16:47;;;;;;;;;;;;;;;;;;5030916;28;20226;-72
2021/03/04 15:19:13;;;;;;;;;;;;;;;;;;5030939;28;19917;-69
2021/03/04 15:21:39;;;;;;;;;;;;;;;;;;5033808;28;19909;-70
2021/03/04 15:24:05;;;;;;;;;;;;;;;;;;5032398;28;19913;-71
2021/03/04 15:26:31;;;;;;;;;;;;;;;;;;5039474;28;20330;-72
2021/03/04 15:28:57;;;;;;;;;;;;;;;;;;5036985;28;20289;-71
2021/03/04 15:31:23;;;;;;;;;;;;;;;;;;5035566;28;19916;-72
2021/03/04 15:33:49;;;;;;;;;;;;;;;;;;5028448;28;19919;-71
2021/03/04 15:36:15;;;;;;;;;;;;;;;;;;5031240;28;19939;-71
2021/03/04 15:38:41;;;;;;;;;;;;;;;;;;5040544;28;20350;-70
2021/03/04 15:41:07;;;;;;;;;;;;;;;;;;5030057;28;20284;-69
2021/03/04 15:43:33;;;;;;;;;;;;;;;;;;5023478;28;19917;-70
2021/03/04 15:45:59;;;;;;;;;;;;;;;;;;5033296;28;20043;-71
2021/03/04 15:48:25;;;;;;;;;;;;;;;;;;5034023;28;20363;-72
2021/03/04 15:50:51;;;;;;;;;;;;;;;;;;5033299;28;19905;-67
2021/03/04 15:53:16;;;;;;;;;;;;;;;;;;5028929;28;19914;-73
2021/03/04 15:55:43;;;;;;;;;;;;;;;;;;5033216;28;19905;-71
2021/03/04 15:58:09;;;;;;;;;;;;;;;;;;5032518;28;19905;-69
2021/03/04 16:00:35;;;;;;;;;;;;;;;;;;5040198;28;20167;-71
2021/03/04 16:03:01;;;;;;;;;;;;;;;;;;5024590;28;19909;-67
2021/03/04 16:05:27;;;;;;;;;;;;;;;;;;5043358;28;20108;-69
2021/03/04 16:07:52;;;;;;;;;;;;;;;;;;5038190;28;19924;-70
2021/03/04 16:10:18;;;;;;;;;;;;;;;;;;5037060;28;20567;-70
2021/03/04 16:12:44;;;;;;;;;;;;;;;;;;5028633;28;20281;-70
2021/03/04 16:15:10;;;;;;;;;;;;;;;;;;5034408;28;19913;-71
2021/03/04 16:17:36;;;;;;;;;;;;;;;;;;5054751;22;19974;-68
2021/03/04 16:20:02;;;;;;;;;;;;;;;;;;5049478;28;19909;-69
2021/03/04 16:22:28;;;;;;;;;;;;;;;;;;5048986;28;20425;-70
2021/03/04 16:24:54;;;;;;;;;;;;;;;;;;5048910;28;19904;-71
2021/03/04 16:27:20;;;;;;;;;;;;;;;;;;5049464;28;19943;-69
2021/03/04 16:29:45;;;;;;;;;;;;;;;;;;5049843;28;19999;-70